Time;durP1;ratioP1;P1;durP2;ratioP2;P2;SDS_P1;SDS_P2;PMS_P1;PMS_P2;Temp;Humidity;BMP_temperature;BMP_pressure;BME280_temperature;BME280_humidity;BME280_pressure;Samples;Min_cycle;Max_cycle;Signal;HPM_P1;HPM_P2
2021/04/23 00:00:16;;;;;;;6.53;3.03;;;;;;;7.56;47.17;96900.31;5094926;28;20968;-86
2021/04/23 00:02:42;;;;;;;8.23;3.37;;;;;;;7.60;46.78;96894.66;5099933;28;20527;-87
2021/04/23 00:05:10;;;;;;;8.90;3.30;;;;;;;7.68;47.11;96901.63;5099533;28;20539;-87
2021/04/23 00:07:36;;;;;;;11.00;3.40;;;;;;;7.74;46.38;96898.88;5099610;28;20489;-86
2021/04/23 00:10:05;;;;;;;10.13;2.93;;;;;;;7.71;46.81;96900.59;5100246;28;20444;-87
2021/04/23 00:12:32;;;;;;;10.43;3.00;;;;;;;7.71;47.25;96899.88;5100355;28;20476;-87
2021/04/23 00:14:58;;;;;;;8.93;3.27;;;;;;;7.59;47.81;96906.63;5101714;28;20536;-87
2021/04/23 00:17:24;;;;;;;8.57;2.93;;;;;;;7.48;47.23;96902.84;5102708;28;20907;-87
2021/04/23 00:19:51;;;;;;;11.33;3.17;;;;;;;7.45;47.49;96898.50;5102386;28;20503;-87
2021/04/23 00:22:17;;;;;;;9.33;2.90;;;;;;;7.52;47.25;96900.59;5102774;28;20508;-87
2021/04/23 00:24:43;;;;;;;10.10;3.33;;;;;;;7.45;47.55;96903.13;5100648;28;20447;-87
2021/04/23 00:27:09;;;;;;;9.17;3.80;;;;;;;7.39;47.59;96905.16;5100016;28;20539;-88
2021/04/23 00:29:37;;;;;;;7.83;2.80;;;;;;;7.38;47.39;96899.06;5100274;28;20607;-87
2021/04/23 00:32:05;;;;;;;11.27;3.70;;;;;;;7.37;47.82;96900.28;5100228;28;20480;-87
2021/04/23 00:34:31;;;;;;;6.73;2.50;;;;;;;7.42;47.52;96896.78;5099689;28;20555;-87
2021/04/23 00:36:57;;;;;;;6.13;3.70;;;;;;;7.32;48.27;96901.06;5100062;28;20467;-87
2021/04/23 00:39:24;;;;;;;8.57;3.70;;;;;;;7.27;47.89;96895.75;5099211;28;20422;-87
2021/04/23 00:41:50;;;;;;;6.50;2.80;;;;;;;7.37;47.35;96905.66;5100203;28;20472;-87
2021/04/23 00:44:16;;;;;;;8.97;3.40;;;;;;;7.21;48.43;96903.13;5103009;28;20476;-87
2021/04/23 00:46:43;;;;;;;10.50;4.37;;;;;;;7.23;47.61;96896.03;5099038;28;20423;-87
2021/04/23 00:49:09;;;;;;;9.10;3.43;;;;;;;7.07;49.08;96904.25;5100105;28;20582;-87
2021/04/23 00:51:39;;;;;;;7.20;2.97;;;;;;;7.05;48.51;96899.38;5099497;28;20456;-87
2021/04/23 00:54:06;;;;;;;17.97;3.40;;;;;;;7.06;48.22;96898.16;5099500;28;20507;-87
2021/04/23 00:56:35;;;;;;;8.27;3.33;;;;;;;7.10;47.75;96906.66;5099225;28;20444;-87
2021/04/23 00:59:03;;;;;;;7.20;2.70;;;;;;;6.94;48.12;96905.59;5098983;28;20512;-87
2021/04/23 01:01:31;;;;;;;11.37;3.00;;;;;;;6.76;48.47;96903.56;5098468;28;20976;-87
2021/04/23 01:03:59;;;;;;;10.47;3.73;;;;;;;6.75;48.30;96899.41;5098700;28;20529;-86
2021/04/23 01:06:28;;;;;;;7.70;3.00;;;;;;;6.99;47.45;96898.72;5098160;28;21012;-86
2021/04/23 01:08:56;;;;;;;11.73;3.20;;;;;;;6.68;48.76;96896.53;5097663;28;20580;-86
2021/04/23 01:11:25;;;;;;;9.93;3.50;;;;;;;6.53;49.01;96896.19;5098813;28;20473;-86
2021/04/23 01:13:53;;;;;;;9.27;2.80;;;;;;;6.40;50.25;96891.41;5098047;28;20913;-86
2021/04/23 01:16:22;;;;;;;7.73;3.10;;;;;;;6.53;49.70;96894.22;5098574;28;20533;-86
2021/04/23 01:18:50;;;;;;;5.90;2.80;;;;;;;6.43;49.77;96893.81;5098366;28;20578;-86
2021/04/23 01:21:19;;;;;;;13.90;3.60;;;;;;;6.40;50.10;96891.41;5098434;28;20877;-87
2021/04/23 01:23:47;;;;;;;15.50;3.70;;;;;;;6.32;50.72;96888.56;5097608;28;20504;-87
2021/04/23 01:26:15;;;;;;;12.50;4.37;;;;;;;6.29;50.92;96889.56;5098919;28;20435;-87
2021/04/23 01:28:42;;;;;;;11.07;4.07;;;;;;;6.25;51.68;96891.75;5098535;28;20535;-87
2021/04/23 01:31:11;;;;;;;11.67;4.43;;;;;;;6.27;51.49;96889.31;5098107;28;20531;-88
2021/04/23 01:33:39;;;;;;;10.10;4.07;;;;;;;6.30;51.75;96890.97;5098229;28;20965;-87
2021/04/23 01:36:06;;;;;;;7.93;4.07;;;;;;;6.26;51.91;96885.19;5098724;28;20544;-87
2021/04/23 01:38:35;;;;;;;11.33;4.77;;;;;;;6.27;52.00;96886.63;5097952;28;20574;-87
2021/04/23 01:41:01;;;;;;;10.83;3.87;;;;;;;6.27;51.97;96885.88;5098089;28;20460;-87
2021/04/23 01:43:27;;;;;;;11.73;4.67;;;;;;;6.28;52.18;96890.75;5098223;28;20528;-86
2021/04/23 01:45:53;;;;;;;10.40;5.00;;;;;;;6.27;52.18;96886.63;5098159;28;20465;-87
2021/04/23 01:48:19;;;;;;;16.33;4.70;;;;;;;6.22;51.91;96892.03;5098064;28;20491;-86
2021/04/23 01:50:46;;;;;;;10.60;4.40;;;;;;;6.12;53.04;96899.63;5098392;28;20509;-86
2021/04/23 01:53:13;;;;;;;14.77;4.53;;;;;;;6.12;52.53;96896.22;5098175;28;20507;-87
2021/04/23 01:55:40;;;;;;;10.80;4.50;;;;;;;6.02;52.96;96901.16;5111545;28;20492;-89
2021/04/23 01:58:07;;;;;;;8.60;3.80;;;;;;;6.01;53.08;96905.06;5119759;28;20484;-87
2021/04/23 02:00:36;;;;;;;8.83;4.00;;;;;;;6.06;52.27;96903.56;5110323;28;20425;-86
2021/04/23 02:03:06;;;;;;;7.50;4.50;;;;;;;6.00;52.59;96910.91;5097090;28;20448;-86
2021/04/23 02:05:33;;;;;;;9.93;3.80;;;;;;;5.99;52.81;96906.75;5096533;28;20464;-86
2021/04/23 02:08:00;;;;;;;10.83;4.97;;;;;;;5.97;52.81;96912.63;5096202;28;20501;-86
2021/04/23 02:10:30;;;;;;;10.30;4.63;;;;;;;5.95;53.04;96915.09;5097277;28;20550;-86
2021/04/23 02:12:58;;;;;;;8.63;3.77;;;;;;;5.92;53.54;96913.38;5097712;28;20847;-86
2021/04/23 02:15:27;;;;;;;17.57;4.27;;;;;;;5.96;53.12;96910.44;5097304;28;20489;-86
2021/04/23 02:17:54;;;;;;;11.77;3.80;;;;;;;5.89;54.01;96914.34;5097364;28;20507;-86
2021/04/23 02:20:24;;;;;;;9.23;3.80;;;;;;;5.93;53.43;96910.22;5114516;28;20451;-87
2021/04/23 02:22:51;;;;;;;11.60;4.03;;;;;;;5.83;53.86;96906.34;5117576;28;20484;-87
2021/04/23 02:25:19;;;;;;;9.03;3.40;;;;;;;5.79;53.93;96910.50;5116508;28;20445;-85
2021/04/23 02:27:45;;;;;;;10.40;4.07;;;;;;;5.67;54.44;96911.78;5118808;28;20430;-86
2021/04/23 02:30:16;;;;;;;8.13;3.80;;;;;;;5.56;54.80;96922.50;5119921;28;20392;-86
2021/04/23 02:32:43;;;;;;;24.73;4.63;;;;;;;5.57;55.16;96911.31;5119376;28;20444;-86
2021/04/23 02:35:13;;;;;;;13.23;4.97;;;;;;;5.54;54.90;96908.91;5119621;28;20465;-86
2021/04/23 02:37:40;;;;;;;10.27;3.63;;;;;;;5.68;54.59;96913.22;5117846;28;20476;-86
2021/04/23 02:40:10;;;;;;;10.10;3.87;;;;;;;5.65;54.73;96919.56;5108967;28;20461;-86
2021/04/23 02:42:37;;;;;;;6.73;3.57;;;;;;;5.66;55.24;96916.41;5105038;28;20452;-86
2021/04/23 02:45:04;;;;;;;12.57;3.53;;;;;;;5.57;55.55;96930.06;5099823;28;20492;-86
2021/04/23 02:47:32;;;;;;;10.00;3.40;;;;;;;5.47;55.82;96920.84;5096953;28;20516;-86
2021/04/23 02:49:58;;;;;;;7.93;3.27;;;;;;;5.55;55.73;96915.69;5096240;28;20539;-86
2021/04/23 02:52:24;;;;;;;5.47;3.00;;;;;;;5.63;55.82;96922.75;5096189;28;20508;-87
2021/04/23 02:54:50;;;;;;;9.90;3.50;;;;;;;5.53;56.38;96929.59;5096279;28;20642;-86
2021/04/23 02:57:17;;;;;;;11.77;5.90;;;;;;;5.50;56.34;96924.47;5095791;28;20476;-86
2021/04/23 02:59:44;;;;;;;10.97;4.13;;;;;;;5.50;56.50;96933.25;5096546;28;20520;-88
2021/04/23 03:02:11;;;;;;;11.87;4.00;;;;;;;5.47;56.71;96930.81;5096387;28;20504;-87
2021/04/23 03:04:38;;;;;;;5.33;3.40;;;;;;;5.40;57.03;96927.44;5096684;28;20586;-87
2021/04/23 03:07:04;;;;;;;8.50;3.47;;;;;;;5.49;56.58;96929.09;5096220;28;20510;-86
2021/04/23 03:09:30;;;;;;;10.10;3.47;;;;;;;5.50;56.38;96921.81;5096081;28;20515;-87
2021/04/23 03:11:57;;;;;;;8.17;4.37;;;;;;;5.53;56.37;96921.56;5096258;28;20520;-87
2021/04/23 03:14:25;;;;;;;8.77;3.43;;;;;;;5.48;56.95;96932.28;5097045;28;20449;-87
2021/04/23 03:16:51;;;;;;;10.80;3.40;;;;;;;5.48;57.48;96926.94;5096916;28;20498;-87
2021/04/23 03:19:20;;;;;;;10.40;3.43;;;;;;;5.49;57.13;96929.09;5098211;28;20542;-86
2021/04/23 03:21:50;;;;;;;9.83;4.27;;;;;;;5.49;56.82;96931.03;5097585;28;20891;-87
2021/04/23 03:24:17;;;;;;;5.87;3.10;;;;;;;5.44;57.54;96929.84;5096274;28;20437;-87
2021/04/23 03:26:45;;;;;;;10.00;3.50;;;;;;;5.26;58.67;96930.41;5096830;28;20480;-87
2021/04/23 03:29:12;;;;;;;8.33;5.20;;;;;;;5.11;59.68;96930.66;5097296;28;20599;-88
2021/04/23 03:31:39;;;;;;;4.00;2.83;;;;;;;5.02;59.93;96932.84;5096502;28;20468;-87
2021/04/23 03:34:06;;;;;;;6.20;2.93;;;;;;;4.95;60.38;96936.75;5095702;28;21225;-87
2021/04/23 03:36:32;;;;;;;5.27;3.60;;;;;;;4.85;60.48;96938.22;5096072;28;20474;-87
2021/04/23 03:39:00;;;;;;;7.60;3.70;;;;;;;4.85;60.77;96936.25;5096389;28;20476;-87
2021/04/23 03:41:29;;;;;;;6.30;3.43;;;;;;;4.86;60.58;96934.31;5096045;28;20455;-87
2021/04/23 03:43:56;;;;;;;8.23;3.70;;;;;;;4.84;60.28;96939.44;5096265;28;20507;-87
2021/04/23 03:46:23;;;;;;;6.93;3.47;;;;;;;4.72;60.99;96935.31;5095919;28;20520;-86
2021/04/23 03:48:49;;;;;;;8.60;3.33;;;;;;;4.64;61.33;96943.06;5097616;28;20503;-87
2021/04/23 03:51:18;;;;;;;9.43;4.07;;;;;;;4.63;61.65;96938.22;5096403;28;20444;-87
2021/04/23 03:53:46;;;;;;;10.90;4.30;;;;;;;4.65;61.45;96944.53;5096236;28;20433;-86
2021/04/23 03:56:14;;;;;;;9.70;4.47;;;;;;;4.68;61.05;96942.84;5096600;28;20987;-87
2021/04/23 03:58:40;;;;;;;13.30;5.10;;;;;;;4.67;61.36;96944.03;5096972;28;20491;-87
2021/04/23 04:01:09;;;;;;;11.73;5.03;;;;;;;4.66;60.78;96948.69;5096908;28;20522;-87
2021/04/23 04:03:36;;;;;;;11.20;4.80;;;;;;;4.59;61.97;96943.09;5096677;28;20447;-86
2021/04/23 04:06:03;;;;;;;6.30;4.23;;;;;;;4.46;62.50;96948.16;5096542;28;20464;-86
2021/04/23 04:08:30;;;;;;;8.73;4.13;;;;;;;4.39;63.11;96946.69;5095569;28;20463;-85
2021/04/23 04:10:56;;;;;;;7.37;3.83;;;;;;;4.37;62.96;96953.75;5096660;28;20536;-86
2021/04/23 04:13:23;;;;;;;10.60;4.77;;;;;;;4.40;62.75;96950.09;5097564;28;20484;-88
2021/04/23 04:15:50;;;;;;;13.53;4.40;;;;;;;4.46;63.17;96953.50;5098068;28;20889;-87
2021/04/23 04:18:18;;;;;;;10.80;4.97;;;;;;;4.51;62.83;96958.84;5104340;28;20511;-87
2021/04/23 04:20:46;;;;;;;10.40;4.30;;;;;;;4.55;62.60;96956.69;5096976;28;20475;-87
2021/04/23 04:23:16;;;;;;;15.97;6.30;;;;;;;4.61;63.01;96964.69;5096974;28;20523;-87
2021/04/23 04:25:44;;;;;;;7.67;3.97;;;;;;;4.72;62.89;96957.44;5097531;28;20480;-87
2021/04/23 04:28:11;;;;;;;13.60;4.17;;;;;;;4.82;62.16;96961.28;5096926;28;21016;-88
2021/04/23 04:30:39;;;;;;;15.37;4.50;;;;;;;5.03;61.60;96969.81;5096527;28;20504;-87
2021/04/23 04:33:07;;;;;;;11.60;4.63;;;;;;;5.19;61.45;96966.41;5096904;28;20512;-87
2021/04/23 04:35:33;;;;;;;10.30;4.47;;;;;;;5.42;60.54;96966.34;5098310;28;20503;-87
2021/04/23 04:38:00;;;;;;;19.10;4.57;;;;;;;5.68;59.66;96972.84;5097482;28;20576;-88
2021/04/23 04:40:27;;;;;;;12.97;5.53;;;;;;;5.92;59.21;96969.59;5097389;28;20545;-87
2021/04/23 04:42:55;;;;;;;12.00;3.97;;;;;;;6.39;56.90;96971.06;5097888;28;20491;-88
2021/04/23 04:45:23;;;;;;;13.17;4.70;;;;;;;6.76;55.76;96969.88;5098884;28;21052;-88
2021/04/23 04:47:51;;;;;;;9.90;3.43;;;;;;;7.14;53.99;96982.22;5100818;28;20472;-88
2021/04/23 04:50:20;;;;;;;9.50;3.80;;;;;;;7.52;52.50;96986.50;5100718;28;20479;-88
2021/04/23 04:52:46;;;;;;;7.33;4.30;;;;;;;7.65;51.08;96987.84;5099512;28;20415;-87
2021/04/23 04:55:15;;;;;;;9.73;4.27;;;;;;;8.20;50.73;96989.16;5100527;28;20552;-88
2021/04/23 04:57:41;;;;;;;12.30;3.73;;;;;;;8.77;49.42;96985.94;5102840;28;20460;-88
2021/04/23 05:00:10;;;;;;;14.60;3.80;;;;;;;9.26;48.50;96997.16;5103067;28;20519;-88
2021/04/23 05:02:37;;;;;;;12.27;4.40;;;;;;;9.65;47.38;97001.88;5103344;28;20450;-88
2021/04/23 05:05:06;;;;;;;9.13;3.80;;;;;;;10.08;46.56;97007.69;5101692;28;20459;-88
2021/04/23 05:07:33;;;;;;;10.97;4.37;;;;;;;10.47;46.22;97006.16;5101479;28;20436;-88
2021/04/23 05:09:59;;;;;;;13.90;5.37;;;;;;;10.53;45.04;97012.16;5102051;28;20445;-89
2021/04/23 05:12:25;;;;;;;12.40;5.73;;;;;;;10.83;45.14;97009.06;5101467;28;20531;-87
2021/04/23 05:14:51;;;;;;;11.30;4.90;;;;;;;10.93;44.54;97018.88;5100546;28;20573;-88
2021/04/23 05:17:18;;;;;;;9.03;4.13;;;;;;;10.98;43.94;97018.03;5102791;28;20498;-87
2021/04/23 05:19:44;;;;;;;9.20;4.30;;;;;;;11.18;44.05;97020.00;5103103;28;21046;-88
2021/04/23 05:22:11;;;;;;;12.83;5.33;;;;;;;10.99;44.03;97018.75;5102506;28;20475;-87
2021/04/23 05:24:37;;;;;;;7.90;4.90;;;;;;;11.10;44.86;97018.50;5102225;28;20491;-87
2021/04/23 05:27:04;;;;;;;9.40;4.43;;;;;;;11.34;44.83;97017.44;5100468;28;20450;-87
2021/04/23 05:29:30;;;;;;;9.47;5.10;;;;;;;11.84;44.74;97018.91;5101970;28;20460;-88
2021/04/23 05:31:56;;;;;;;14.30;5.00;;;;;;;12.05;43.64;97035.78;5101566;28;20516;-88
2021/04/23 05:34:22;;;;;;;9.27;4.43;;;;;;;12.16;43.02;97038.91;5101644;28;20416;-87
2021/04/23 05:36:48;;;;;;;11.47;5.67;;;;;;;12.66;41.31;97042.88;5102411;28;20446;-87
2021/04/23 05:39:15;;;;;;;12.93;5.70;;;;;;;12.40;41.21;97039.72;5101054;28;20547;-86
2021/04/23 05:41:41;;;;;;;14.10;6.17;;;;;;;12.41;41.67;97041.88;5101910;28;20494;-88
2021/04/23 05:44:09;;;;;;;13.00;5.70;;;;;;;12.74;41.00;97051.75;5102824;28;20961;-87
2021/04/23 05:46:35;;;;;;;17.87;7.03;;;;;;;12.78;40.97;97049.41;5104208;28;20441;-88
2021/04/23 05:49:02;;;;;;;13.67;6.23;;;;;;;13.10;40.63;97053.66;5104901;28;20455;-88
2021/04/23 05:51:28;;;;;;;13.77;6.20;;;;;;;13.37;39.90;97055.50;5105975;28;20435;-89
2021/04/23 05:53:54;;;;;;;12.90;6.60;;;;;;;13.21;40.08;97058.75;5107887;28;20534;-89
2021/04/23 05:56:21;;;;;;;12.13;6.03;;;;;;;13.68;39.22;97061.66;5110352;28;20556;-88
2021/04/23 05:58:57;;;;;;;;;;;;;;;;;;;;;
2021/04/23 06:01:24;;;;;;;10.53;5.10;;;;;;;14.22;38.38;97068.44;5097967;28;20548;-85
2021/04/23 06:03:50;;;;;;;14.73;5.83;;;;;;;14.67;37.30;97069.56;5102578;28;20469;-88
2021/04/23 06:06:17;;;;;;;17.80;6.33;;;;;;;14.43;37.39;97071.66;5102480;28;20460;-89
2021/04/23 06:08:43;;;;;;;13.90;6.67;;;;;;;14.68;36.96;97074.47;5092375;28;20433;-93
2021/04/23 06:11:15;;;;;;;14.23;5.93;;;;;;;15.15;36.71;97073.69;5124075;28;20499;-96
2021/04/23 06:13:43;;;;;;;16.50;6.43;;;;;;;14.56;36.97;97073.44;5136062;27;20391;-96
2021/04/23 06:16:09;;;;;;;11.40;5.60;;;;;;;15.27;35.78;97082.13;5138342;27;20709;-93
2021/04/23 06:18:36;;;;;;;8.33;5.30;;;;;;;15.62;34.87;97081.00;5139428;27;20456;-91
2021/04/23 06:21:03;;;;;;;9.97;4.87;;;;;;;15.59;34.84;97090.25;5131145;27;20440;-91
2021/04/23 06:23:29;;;;;;;12.93;5.40;;;;;;;15.34;35.86;97082.06;5123811;28;20451;-91
2021/04/23 06:25:56;;;;;;;11.60;6.00;;;;;;;15.35;36.19;97082.78;5130059;27;20983;-93
2021/04/23 06:28:22;;;;;;;15.33;6.20;;;;;;;15.62;35.56;97083.72;5127330;28;20414;-93
2021/04/23 06:30:50;;;;;;;10.73;5.40;;;;;;;15.44;35.68;97084.91;5125010;28;20418;-92
2021/04/23 06:33:19;;;;;;;10.83;5.90;;;;;;;15.54;34.65;97083.03;5130589;27;20420;-95
2021/04/23 06:35:46;;;;;;;14.30;7.00;;;;;;;15.02;36.39;97090.97;5136132;27;20439;-94
2021/04/23 06:38:15;;;;;;;12.80;5.90;;;;;;;15.49;35.48;97092.88;5136449;27;20442;-93
2021/04/23 06:40:44;;;;;;;14.23;6.10;;;;;;;15.53;35.29;97092.50;5135616;27;20424;-94
2021/04/23 06:59:04;;;;;;;9.13;4.13;;;;;;;14.89;35.18;97110.22;5100001;28;20488;-93
2021/04/23 07:01:31;;;;;;;10.07;5.17;;;;;;;15.33;34.54;97099.66;5106928;28;20439;-92
2021/04/23 07:03:57;;;;;;;6.63;4.20;;;;;;;14.83;34.98;97100.84;5103251;28;20452;-92
2021/04/23 07:06:24;;;;;;;21.13;7.47;;;;;;;15.35;35.49;97104.53;5107694;28;20526;-91
2021/04/23 07:08:52;;;;;;;10.53;5.80;;;;;;;15.80;34.30;97104.22;5107384;28;20502;-93
2021/04/23 07:11:19;;;;;;;14.83;5.67;;;;;;;15.63;34.89;97109.63;5106335;28;20452;-91
2021/04/23 07:13:46;;;;;;;12.40;5.20;;;;;;;15.83;34.35;97113.28;5109263;28;20924;-90
2021/04/23 07:16:15;;;;;;;12.67;5.87;;;;;;;15.41;34.84;97118.66;5103493;28;20461;-91
2021/04/23 07:18:46;;;;;;;10.93;4.53;;;;;;;15.40;34.97;97119.94;5113681;28;20514;-93
2021/04/23 07:21:12;;;;;;;8.70;4.30;;;;;;;15.61;34.09;97120.34;5117744;28;20448;-92
2021/04/23 07:23:38;;;;;;;13.27;5.80;;;;;;;15.09;35.02;97113.22;5118113;28;20421;-93
2021/04/23 07:26:20;;;;;;;8.07;4.43;;;;;;;15.17;35.10;97113.88;5116869;28;20469;-91
2021/04/23 07:32:03;;;;;;;11.60;5.23;;;;;;;15.38;34.82;97120.47;5115910;28;20444;-91
2021/04/23 07:34:36;;;;;;;15.20;5.00;;;;;;;14.72;35.51;97120.28;5110301;28;20471;-91
2021/04/23 07:37:18;;;;;;;14.83;5.10;;;;;;;14.88;34.85;97124.34;5110271;28;20923;-93
2021/04/23 07:39:46;;;;;;;12.07;5.27;;;;;;;15.24;34.31;97116.56;5105252;28;20499;-93
2021/04/23 07:42:14;;;;;;;14.67;4.77;;;;;;;15.66;33.71;97121.41;5108914;28;20393;-95
2021/04/23 07:45:01;;;;;;;;;;;;;;;;;;;;;
2021/04/23 07:47:30;;;;;;;11.17;5.10;;;;;;;14.91;35.17;97115.13;5106930;28;20428;-90
2021/04/23 07:50:07;;;;;;;;;;;;;;;;;;;;;
2021/04/23 08:02:53;;;;;;;15.87;7.33;;;;;;;15.66;34.52;97127.59;5061260;28;20475;-92
2021/04/23 08:05:20;;;;;;;18.77;5.77;;;;;;;15.57;34.23;97125.44;5070913;28;20549;-90
2021/04/23 08:07:47;;;;;;;17.80;6.43;;;;;;;15.82;33.65;97134.34;5087245;28;20437;-90
2021/04/23 08:23:14;;;;;;;11.70;7.60;;;;;;;14.50;35.59;97121.81;5103342;28;20452;-91
2021/04/23 08:25:40;;;;;;;16.23;8.30;;;;;;;14.35;35.63;97124.53;5106462;28;20510;-90
2021/04/23 08:28:10;;;;;;;10.93;6.33;;;;;;;13.93;35.95;97116.81;5107955;28;20425;-93
2021/04/23 08:30:36;;;;;;;13.73;7.13;;;;;;;14.63;35.92;97118.13;5104953;28;20829;-90
2021/04/23 08:33:03;;;;;;;10.93;6.30;;;;;;;14.71;35.41;97126.97;5106187;28;20442;-89
2021/04/23 08:35:30;;;;;;;13.93;6.80;;;;;;;14.32;36.61;97131.75;5104843;28;20460;-86
2021/04/23 08:38:03;;;;;;;18.40;7.90;;;;;;;14.20;36.39;97121.81;5105971;28;20472;-92
2021/04/23 08:40:31;;;;;;;14.43;7.30;;;;;;;12.86;39.03;97119.88;5120646;28;20436;-93
2021/04/23 08:42:57;;;;;;;13.80;7.17;;;;;;;13.13;38.78;97121.06;5120872;28;20418;-91
2021/04/23 08:45:28;;;;;;;19.67;7.40;;;;;;;13.24;38.94;97122.72;5120826;28;20548;-91
2021/04/23 08:47:58;;;;;;;20.13;7.67;;;;;;;12.98;39.83;97120.25;5107462;28;20453;-90
2021/04/23 08:53:20;;;;;;;21.80;7.30;;;;;;;12.82;39.53;97116.78;5103569;28;20440;-86
2021/04/23 08:55:47;;;;;;;14.63;7.40;;;;;;;12.99;38.59;97122.44;5116733;28;20445;-92
2021/04/23 08:58:14;;;;;;;17.73;6.60;;;;;;;13.31;38.63;97108.47;5111656;28;20472;-85
2021/04/23 09:00:41;;;;;;;12.17;6.80;;;;;;;13.66;37.89;97121.13;5104765;28;20457;-84
2021/04/23 09:03:09;;;;;;;15.80;7.17;;;;;;;12.92;39.23;97125.13;5103171;28;20464;-86
2021/04/23 09:05:35;;;;;;;14.97;6.43;;;;;;;12.94;39.39;97126.03;5111108;28;20468;-91
2021/04/23 09:08:19;;;;;;;10.90;6.73;;;;;;;13.30;39.33;97123.28;5107138;28;20460;-90
2021/04/23 09:10:51;;;;;;;19.50;8.43;;;;;;;12.67;40.74;97116.72;5104589;28;20489;-93
2021/04/23 09:13:19;;;;;;;26.73;8.73;;;;;;;12.42;41.15;97119.13;5105493;28;20483;-89
2021/04/23 09:15:47;;;;;;;13.20;7.27;;;;;;;12.42;40.95;97123.81;5104395;28;20469;-89
2021/04/23 09:18:15;;;;;;;23.60;9.50;;;;;;;12.23;42.26;97127.50;5104986;28;20468;-89
2021/04/23 09:20:45;;;;;;;16.00;7.23;;;;;;;12.17;41.49;97118.09;5105808;28;20445;-88
2021/04/23 09:23:15;;;;;;;16.97;6.83;;;;;;;12.32;40.96;97126.28;5105099;28;20527;-91
2021/04/23 09:25:45;;;;;;;13.27;5.90;;;;;;;12.61;40.21;97118.88;5107959;28;20457;-94
2021/04/23 09:28:13;;;;;;;17.07;6.97;;;;;;;12.71;40.38;97117.09;5115912;28;20444;-94
2021/04/23 09:30:40;;;;;;;14.37;7.53;;;;;;;12.86;40.15;97123.31;5102133;28;20426;-92
2021/04/23 09:33:25;;;;;;;25.43;7.43;;;;;;;12.64;39.80;97115.09;5094213;28;20401;-88
2021/04/23 09:35:51;;;;;;;15.73;7.73;;;;;;;12.93;40.27;97110.31;5094839;28;20961;-87
2021/04/23 09:38:17;;;;;;;14.27;6.07;;;;;;;13.12;40.19;97122.34;5109236;28;20529;-87
2021/04/23 09:40:44;;;;;;;22.30;7.57;;;;;;;13.02;39.70;97124.06;5102979;28;20490;-88
2021/04/23 09:43:10;;;;;;;20.30;7.80;;;;;;;12.90;38.96;97120.94;5102545;28;20544;-92
2021/04/23 09:45:49;;;;;;;15.83;7.20;;;;;;;12.54;39.83;97120.28;5107297;28;20522;-94
2021/04/23 09:48:21;;;;;;;12.00;7.50;;;;;;;12.89;38.58;97121.50;5112826;28;20427;-95
2021/04/23 09:50:47;;;;;;;17.50;6.80;;;;;;;12.75;40.08;97128.28;5108895;28;20452;-87
2021/04/23 09:53:14;;;;;;;15.63;8.07;;;;;;;12.77;40.16;97117.66;5105921;28;20415;-89
2021/04/23 09:55:41;;;;;;;17.53;8.80;;;;;;;12.69;40.72;97111.47;5103677;28;20838;-89
2021/04/23 09:58:09;;;;;;;16.50;8.23;;;;;;;12.61;40.37;97111.47;5104092;28;20441;-91
2021/04/23 10:00:37;;;;;;;19.30;6.50;;;;;;;12.70;40.07;97115.66;5103547;28;20870;-90
2021/04/23 10:03:05;;;;;;;15.00;8.13;;;;;;;12.56;39.86;97117.03;5101597;28;20873;-90
2021/04/23 10:05:34;;;;;;;16.23;7.50;;;;;;;12.72;39.26;97113.84;5092995;28;20489;-89
2021/04/23 10:08:02;;;;;;;13.10;7.13;;;;;;;12.94;38.93;97114.50;5080807;28;20852;-88
2021/04/23 10:10:28;;;;;;;10.93;5.97;;;;;;;13.01;37.63;97121.91;5080821;28;20455;-90
2021/04/23 10:12:58;;;;;;;21.47;7.13;;;;;;;13.31;37.34;97116.59;5084135;28;20449;-87
2021/04/23 10:15:26;;;;;;;13.97;6.93;;;;;;;13.46;37.99;97111.19;5079095;28;20895;-86
2021/04/23 10:17:54;;;;;;;16.20;6.60;;;;;;;13.37;38.61;97117.13;5079251;28;20524;-86
2021/04/23 10:20:27;;;;;;;16.20;7.30;;;;;;;12.95;37.68;97130.19;5078644;28;20468;-85
2021/04/23 10:22:54;;;;;;;19.87;6.57;;;;;;;12.98;37.47;97122.97;5078983;28;20976;-85
2021/04/23 10:25:21;;;;;;;10.47;5.70;;;;;;;12.87;37.36;97116.59;5080922;28;20480;-86
2021/04/23 10:27:50;;;;;;;12.33;6.13;;;;;;;12.77;37.69;97118.41;5083887;28;20510;-87
2021/04/23 10:30:19;;;;;;;16.63;6.83;;;;;;;12.71;39.83;97119.81;5085040;28;20404;-89
2021/04/23 10:32:47;;;;;;;13.60;6.43;;;;;;;12.89;40.19;97113.38;5084046;28;20427;-92
2021/04/23 10:35:14;;;;;;;22.70;7.10;;;;;;;13.09;40.72;97111.84;5084462;28;20424;-89
2021/04/23 10:37:43;;;;;;;14.13;7.03;;;;;;;13.39;39.75;97106.47;5082712;28;20389;-93
2021/04/23 10:40:11;;;;;;;20.33;7.40;;;;;;;13.79;39.03;97110.09;5085777;28;20451;-86
2021/04/23 10:42:47;;;;;;;14.67;7.40;;;;;;;13.65;38.63;97114.28;5080420;28;20451;-91
2021/04/23 10:45:35;;;;;;;19.23;7.97;;;;;;;13.59;38.09;97119.16;5081975;28;20470;-88
2021/04/23 10:48:05;;;;;;;11.50;6.30;;;;;;;13.30;38.57;97115.88;5076127;28;20520;-88
2021/04/23 10:50:39;;;;;;;14.40;6.40;;;;;;;13.24;38.67;97125.44;5080653;28;20410;-87
2021/04/23 10:53:09;;;;;;;15.67;7.30;;;;;;;13.19;38.23;97118.91;5080252;28;20460;-89
2021/04/23 10:55:44;;;;;;;11.20;6.47;;;;;;;13.28;37.28;97114.97;5079969;28;20454;-89
2021/04/23 10:58:13;;;;;;;15.40;6.83;;;;;;;13.43;36.30;97111.53;5078444;28;20443;-85
2021/04/23 11:00:43;;;;;;;15.90;5.80;;;;;;;13.95;35.39;97111.53;5083070;28;20450;-90
2021/04/23 11:03:30;;;;;;;14.83;6.53;;;;;;;13.88;36.90;97112.28;5083133;28;20446;-89
2021/04/23 11:06:01;;;;;;;18.73;6.53;;;;;;;13.48;36.70;97105.94;5084172;28;20495;-89
2021/04/23 11:08:30;;;;;;;15.90;8.47;;;;;;;13.36;36.98;97096.72;5089562;28;20441;-93
2021/04/23 11:11:17;;;;;;;9.73;6.20;;;;;;;13.63;36.28;97095.09;5083639;28;20422;-91
2021/04/23 11:13:45;;;;;;;9.83;6.13;;;;;;;14.08;35.62;97101.75;5081933;28;20468;-91
2021/04/23 11:16:35;;;;;;;8.93;5.90;;;;;;;14.04;35.42;97106.81;5085551;28;20462;-90
2021/04/23 11:19:35;;;;;;;10.90;5.73;;;;;;;14.16;34.53;97107.91;5080213;28;20537;-86
2021/04/23 11:22:20;;;;;;;13.10;5.80;;;;;;;14.00;35.22;97101.06;5077414;28;20457;-86
2021/04/23 11:25:07;;;;;;;11.10;5.90;;;;;;;13.98;34.42;97101.59;5076324;28;20461;-86
2021/04/23 11:27:33;;;;;;;16.57;6.57;;;;;;;14.11;34.79;97106.09;5076632;28;20429;-86
2021/04/23 11:30:08;;;;;;;19.20;6.60;;;;;;;14.47;34.01;97096.44;5076900;28;20441;-87
2021/04/23 11:32:36;;;;;;;15.80;6.27;;;;;;;14.67;33.96;97102.91;5077262;28;20827;-86
2021/04/23 11:35:18;;;;;;;18.40;6.10;;;;;;;14.29;32.56;97105.69;5078400;28;20569;-86
2021/04/23 11:37:53;;;;;;;21.97;6.13;;;;;;;14.31;33.81;97094.31;5080057;28;20437;-86
2021/04/23 11:40:22;;;;;;;12.37;6.47;;;;;;;14.40;34.17;97099.91;5087636;28;20461;-85
2021/04/23 11:42:50;;;;;;;11.53;4.70;;;;;;;14.48;33.89;97103.31;5087959;28;20499;-86
2021/04/23 11:45:18;;;;;;;18.33;6.60;;;;;;;14.24;33.44;97092.31;5085934;28;20466;-87
2021/04/23 11:47:47;;;;;;;18.23;6.27;;;;;;;14.34;34.06;97096.69;5086525;28;20468;-86
2021/04/23 11:50:17;;;;;;;11.97;6.07;;;;;;;14.54;33.67;97086.81;5081723;28;20796;-86
2021/04/23 11:52:46;;;;;;;17.30;6.50;;;;;;;14.78;32.59;97088.19;5079754;28;20469;-86
2021/04/23 11:55:17;;;;;;;12.97;6.20;;;;;;;14.78;32.32;97085.47;5081430;28;20547;-89
2021/04/23 11:57:47;;;;;;;15.73;5.77;;;;;;;14.72;32.28;97085.66;5083775;28;20425;-87
2021/04/23 12:00:16;;;;;;;15.63;5.73;;;;;;;14.66;32.18;97087.84;5088915;28;20581;-88
2021/04/23 12:02:55;;;;;;;7.50;5.60;;;;;;;14.59;31.97;97072.34;5088111;28;20419;-86
2021/04/23 12:05:24;;;;;;;6.73;3.93;;;;;;;14.55;29.58;97085.56;5087981;28;20461;-85
2021/04/23 12:07:52;;;;;;;9.93;4.70;;;;;;;14.73;28.98;97078.22;5087801;28;20528;-88
2021/04/23 12:10:19;;;;;;;14.70;5.40;;;;;;;14.93;30.76;97077.25;5092849;28;20449;-90
2021/04/23 12:12:46;;;;;;;11.70;4.50;;;;;;;14.97;29.69;97075.56;5081684;28;20476;-89
2021/04/23 12:15:21;;;;;;;10.47;4.90;;;;;;;14.78;28.87;97072.63;5083483;28;20461;-90
2021/04/23 12:17:48;;;;;;;9.03;4.80;;;;;;;14.89;28.97;97074.91;5085543;28;20414;-91
2021/04/23 12:20:18;;;;;;;5.70;4.40;;;;;;;15.09;29.23;97064.28;5087975;28;20535;-91
2021/04/23 12:22:44;;;;;;;10.60;4.77;;;;;;;14.99;28.54;97075.03;5083550;28;20814;-92
2021/04/23 12:25:23;;;;;;;8.63;4.50;;;;;;;14.64;28.77;97073.38;5088306;28;20599;-90